sensor_id;sensor_type;location;lat;lon;timestamp;pressure;altitude;pressure_sealevel;temperature;humidity
17362;BME280;8798;51.938;4.348;2022-12-18T00:01:30;102369.81;;;-0.94;91.21
17362;BME280;8798;51.938;4.348;2022-12-18T00:04:00;102376.88;;;-0.95;90.91
17362;BME280;8798;51.938;4.348;2022-12-18T00:06:33;102369.91;;;-0.97;91.46
17362;BME280;8798;51.938;4.348;2022-12-18T00:09:02;102369.88;;;-0.96;91.13
17362;BME280;8798;51.938;4.348;2022-12-18T00:11:30;102389.09;;;-0.92;91.40
17362;BME280;8798;51.938;4.348;2022-12-18T00:14:00;102406.63;;;-0.90;91.45
17362;BME280;8798;51.938;4.348;2022-12-18T00:16:29;102422.41;;;-0.88;91.15
17362;BME280;8798;51.938;4.348;2022-12-18T00:19:00;102424.19;;;-0.89;91.31
17362;BME280;8798;51.938;4.348;2022-12-18T00:21:28;102418.09;;;-0.91;91.15
17362;BME280;8798;51.938;4.348;2022-12-18T00:23:57;102418.97;;;-0.92;90.93
17362;BME280;8798;51.938;4.348;2022-12-18T00:26:27;102415.53;;;-0.94;91.15
17362;BME280;8798;51.938;4.348;2022-12-18T00:29:00;102408.56;;;-0.96;91.01
17362;BME280;8798;51.938;4.348;2022-12-18T00:31:30;102404.16;;;-0.96;90.89
17362;BME280;8798;51.938;4.348;2022-12-18T00:33:58;102411.22;;;-0.96;91.18
17362;BME280;8798;51.938;4.348;2022-12-18T00:36:28;102414.69;;;-0.96;90.90
17362;BME280;8798;51.938;4.348;2022-12-18T00:38:57;102407.75;;;-1.00;90.95
17362;BME280;8798;51.938;4.348;2022-12-18T00:41:25;102405.19;;;-1.01;91.04
17362;BME280;8798;51.938;4.348;2022-12-18T00:44:14;102408.69;;;-1.01;91.10
17362;BME280;8798;51.938;4.348;2022-12-18T00:46:42;102413.94;;;-1.01;91.26
17362;BME280;8798;51.938;4.348;2022-12-18T00:49:11;102429.69;;;-0.98;91.08
17362;BME280;8798;51.938;4.348;2022-12-18T00:51:41;102443.72;;;-0.96;90.83
17362;BME280;8798;51.938;4.348;2022-12-18T00:54:10;102457.66;;;-0.92;90.92
17362;BME280;8798;51.938;4.348;2022-12-18T00:56:38;102483.06;;;-0.88;90.95
17362;BME280;8798;51.938;4.348;2022-12-18T00:59:15;102483.06;;;-0.87;90.92
17362;BME280;8798;51.938;4.348;2022-12-18T01:01:43;102500.59;;;-0.85;90.96
17362;BME280;8798;51.938;4.348;2022-12-18T01:04:12;102508.47;;;-0.84;90.55
17362;BME280;8798;51.938;4.348;2022-12-18T01:06:40;102511.06;;;-0.82;91.16
17362;BME280;8798;51.938;4.348;2022-12-18T01:09:08;102517.19;;;-0.82;90.90
17362;BME280;8798;51.938;4.348;2022-12-18T01:11:35;102538.19;;;-0.77;90.57
17362;BME280;8798;51.938;4.348;2022-12-18T01:14:04;102551.28;;;-0.73;90.88
17362;BME280;8798;51.938;4.348;2022-12-18T01:16:33;102554.81;;;-0.74;91.21
17362;BME280;8798;51.938;4.348;2022-12-18T01:19:01;102556.56;;;-0.74;90.90
17362;BME280;8798;51.938;4.348;2022-12-18T01:21:29;102557.50;;;-0.75;91.03
17362;BME280;8798;51.938;4.348;2022-12-18T01:23:57;102561.91;;;-0.76;91.17
17362;BME280;8798;51.938;4.348;2022-12-18T01:26:26;102567.13;;;-0.74;91.00
17362;BME280;8798;51.938;4.348;2022-12-18T01:28:56;102577.66;;;-0.73;91.19
17362;BME280;8798;51.938;4.348;2022-12-18T01:31:26;102589.03;;;-0.69;91.01
17362;BME280;8798;51.938;4.348;2022-12-18T01:33:56;102598.66;;;-0.68;90.47
17362;BME280;8798;51.938;4.348;2022-12-18T01:36:27;102602.16;;;-0.68;91.05
17362;BME280;8798;51.938;4.348;2022-12-18T01:38:56;102603.00;;;-0.67;90.98
17362;BME280;8798;51.938;4.348;2022-12-18T01:41:26;102603.00;;;-0.66;90.89
17362;BME280;8798;51.938;4.348;2022-12-18T01:44:53;102603.00;;;-0.67;90.90
17362;BME280;8798;51.938;4.348;2022-12-18T01:47:24;102598.69;;;-0.70;90.88
17362;BME280;8798;51.938;4.348;2022-12-18T01:49:55;102597.88;;;-0.72;90.83
17362;BME280;8798;51.938;4.348;2022-12-18T01:52:25;102591.75;;;-0.74;90.77
17362;BME280;8798;51.938;4.348;2022-12-18T01:54:54;102590.88;;;-0.74;90.88
17362;BME280;8798;51.938;4.348;2022-12-18T01:57:23;102583.88;;;-0.77;90.74
17362;BME280;8798;51.938;4.348;2022-12-18T01:59:53;102592.66;;;-0.75;90.83
17362;BME280;8798;51.938;4.348;2022-12-18T02:02:21;102595.28;;;-0.75;90.85
17362;BME280;8798;51.938;4.348;2022-12-18T02:04:50;102608.47;;;-0.75;91.14
17362;BME280;8798;51.938;4.348;2022-12-18T02:07:25;102606.75;;;-0.76;90.65
17362;BME280;8798;51.938;4.348;2022-12-18T02:10:00;102591.81;;;-0.77;90.43
17362;BME280;8798;51.938;4.348;2022-12-18T02:12:36;102575.19;;;-0.80;90.89
17362;BME280;8798;51.938;4.348;2022-12-18T02:15:10;102576.13;;;-0.83;90.89
17362;BME280;8798;51.938;4.348;2022-12-18T02:17:43;102552.50;;;-0.88;90.70
17362;BME280;8798;51.938;4.348;2022-12-18T02:20:19;102550.81;;;-0.90;90.96
17362;BME280;8798;51.938;4.348;2022-12-18T02:23:00;102536.84;;;-0.95;90.74
17362;BME280;8798;51.938;4.348;2022-12-18T02:25:40;102510.59;;;-1.00;90.79
17362;BME280;8798;51.938;4.348;2022-12-18T02:28:16;102506.28;;;-1.04;91.18
17362;BME280;8798;51.938;4.348;2022-12-18T02:30:47;102496.66;;;-1.05;90.93
17362;BME280;8798;51.938;4.348;2022-12-18T02:33:18;102494.09;;;-1.08;90.35
17362;BME280;8798;51.938;4.348;2022-12-18T02:35:47;102488.00;;;-1.10;90.67
17362;BME280;8798;51.938;4.348;2022-12-18T02:38:16;102492.41;;;-1.11;90.67
17362;BME280;8798;51.938;4.348;2022-12-18T02:40:45;102495.91;;;-1.10;90.49
17362;BME280;8798;51.938;4.348;2022-12-18T02:43:15;102509.06;;;-1.09;90.69
17362;BME280;8798;51.938;4.348;2022-12-18T02:45:47;102521.22;;;-1.03;90.65
17362;BME280;8798;51.938;4.348;2022-12-18T02:48:16;102536.09;;;-1.00;90.86
17362;BME280;8798;51.938;4.348;2022-12-18T02:50:52;102541.41;;;-1.02;90.83
17362;BME280;8798;51.938;4.348;2022-12-18T02:53:28;102516.06;;;-1.09;90.91
17362;BME280;8798;51.938;4.348;2022-12-18T02:56:03;102502.97;;;-1.12;90.45
17362;BME280;8798;51.938;4.348;2022-12-18T02:58:43;102497.78;;;-1.15;90.60
17362;BME280;8798;51.938;4.348;2022-12-18T03:01:16;102478.56;;;-1.20;90.46
17362;BME280;8798;51.938;4.348;2022-12-18T03:03:51;102462.84;;;-1.25;91.00
17362;BME280;8798;51.938;4.348;2022-12-18T03:06:25;102455.03;;;-1.28;90.43
17362;BME280;8798;51.938;4.348;2022-12-18T03:08:58;102448.06;;;-1.31;90.59
17362;BME280;8798;51.938;4.348;2022-12-18T03:11:28;102436.69;;;-1.33;90.65
17362;BME280;8798;51.938;4.348;2022-12-18T03:14:17;102428.88;;;-1.37;90.81
17362;BME280;8798;51.938;4.348;2022-12-18T03:16:49;102430.66;;;-1.38;90.23
17362;BME280;8798;51.938;4.348;2022-12-18T03:19:22;102428.91;;;-1.39;90.22
17362;BME280;8798;51.938;4.348;2022-12-18T03:21:54;102423.69;;;-1.40;90.31
17362;BME280;8798;51.938;4.348;2022-12-18T03:24:26;102416.66;;;-1.41;90.69
17362;BME280;8798;51.938;4.348;2022-12-18T03:26:59;102415.81;;;-1.42;90.32
17362;BME280;8798;51.938;4.348;2022-12-18T03:29:33;102420.25;;;-1.44;90.58
17362;BME280;8798;51.938;4.348;2022-12-18T03:32:07;102415.88;;;-1.45;90.63
17362;BME280;8798;51.938;4.348;2022-12-18T03:34:40;102415.88;;;-1.45;90.51
17362;BME280;8798;51.938;4.348;2022-12-18T03:37:09;102422.00;;;-1.44;90.40
17362;BME280;8798;51.938;4.348;2022-12-18T03:39:37;102431.66;;;-1.43;90.64
17362;BME280;8798;51.938;4.348;2022-12-18T03:42:10;102431.69;;;-1.45;90.54
17362;BME280;8798;51.938;4.348;2022-12-18T03:44:50;102434.31;;;-1.45;90.43
17362;BME280;8798;51.938;4.348;2022-12-18T03:47:26;102435.19;;;-1.44;90.17
17362;BME280;8798;51.938;4.348;2022-12-18T03:49:58;102438.72;;;-1.45;90.46
17362;BME280;8798;51.938;4.348;2022-12-18T03:52:40;102432.56;;;-1.46;90.51
17362;BME280;8798;51.938;4.348;2022-12-18T03:55:10;102439.59;;;-1.45;90.49
17362;BME280;8798;51.938;4.348;2022-12-18T03:57:41;102429.13;;;-1.48;90.22
17362;BME280;8798;51.938;4.348;2022-12-18T04:00:14;102430.94;;;-1.50;90.50
17362;BME280;8798;51.938;4.348;2022-12-18T04:02:45;102436.19;;;-1.50;90.43
17362;BME280;8798;51.938;4.348;2022-12-18T04:05:16;102445.81;;;-1.49;90.38
17362;BME280;8798;51.938;4.348;2022-12-18T04:07:47;102443.19;;;-1.49;90.07
17362;BME280;8798;51.938;4.348;2022-12-18T04:10:18;102444.97;;;-1.49;90.36
17362;BME280;8798;51.938;4.348;2022-12-18T04:12:45;102441.47;;;-1.50;90.55
17362;BME280;8798;51.938;4.348;2022-12-18T04:15:15;102442.41;;;-1.53;90.31
17362;BME280;8798;51.938;4.348;2022-12-18T04:17:47;102444.19;;;-1.53;90.25
17362;BME280;8798;51.938;4.348;2022-12-18T04:20:16;102440.66;;;-1.54;90.22
17362;BME280;8798;51.938;4.348;2022-12-18T04:22:44;102437.22;;;-1.56;90.15
17362;BME280;8798;51.938;4.348;2022-12-18T04:25:12;102433.69;;;-1.56;89.83
17362;BME280;8798;51.938;4.348;2022-12-18T04:27:40;102432.88;;;-1.58;90.50
17362;BME280;8798;51.938;4.348;2022-12-18T04:30:09;102425.00;;;-1.60;90.17
17362;BME280;8798;51.938;4.348;2022-12-18T04:32:38;102425.94;;;-1.62;90.09
17362;BME280;8798;51.938;4.348;2022-12-18T04:35:07;102424.19;;;-1.63;90.32
17362;BME280;8798;51.938;4.348;2022-12-18T04:37:36;102414.56;;;-1.64;90.38
17362;BME280;8798;51.938;4.348;2022-12-18T04:40:05;102418.13;;;-1.65;90.36
17362;BME280;8798;51.938;4.348;2022-12-18T04:42:33;102426.88;;;-1.65;90.57
17362;BME280;8798;51.938;4.348;2022-12-18T04:45:02;102426.00;;;-1.65;90.03
17362;BME280;8798;51.938;4.348;2022-12-18T04:47:30;102427.72;;;-1.64;90.44
17362;BME280;8798;51.938;4.348;2022-12-18T04:49:59;102425.13;;;-1.66;90.34
17362;BME280;8798;51.938;4.348;2022-12-18T04:52:27;102424.25;;;-1.66;90.17
17362;BME280;8798;51.938;4.348;2022-12-18T04:54:57;102423.41;;;-1.67;89.85
17362;BME280;8798;51.938;4.348;2022-12-18T04:57:25;102416.44;;;-1.69;90.31
17362;BME280;8798;51.938;4.348;2022-12-18T04:59:52;102419.97;;;-1.70;90.22
17362;BME280;8798;51.938;4.348;2022-12-18T05:02:20;102422.63;;;-1.70;90.51
17362;BME280;8798;51.938;4.348;2022-12-18T05:04:48;102418.28;;;-1.73;90.01
17362;BME280;8798;51.938;4.348;2022-12-18T05:07:17;102420.94;;;-1.75;90.10
17362;BME280;8798;51.938;4.348;2022-12-18T05:09:45;102428.81;;;-1.73;90.07
17362;BME280;8798;51.938;4.348;2022-12-18T05:12:13;102425.28;;;-1.72;90.03
17362;BME280;8798;51.938;4.348;2022-12-18T05:14:41;102437.53;;;-1.71;89.92
17362;BME280;8798;51.938;4.348;2022-12-18T05:17:09;102446.31;;;-1.70;90.07
17362;BME280;8798;51.938;4.348;2022-12-18T05:19:36;102450.69;;;-1.71;90.40
17362;BME280;8798;51.938;4.348;2022-12-18T05:22:08;102452.47;;;-1.71;89.98
17362;BME280;8798;51.938;4.348;2022-12-18T05:24:37;102448.97;;;-1.72;90.12
17362;BME280;8798;51.938;4.348;2022-12-18T05:27:05;102445.47;;;-1.73;89.94
17362;BME280;8798;51.938;4.348;2022-12-18T05:29:33;102446.38;;;-1.74;90.19
17362;BME280;8798;51.938;4.348;2022-12-18T05:32:01;102436.75;;;-1.75;90.31
17362;BME280;8798;51.938;4.348;2022-12-18T05:34:29;102451.69;;;-1.75;90.16
17362;BME280;8798;51.938;4.348;2022-12-18T05:36:56;102457.78;;;-1.73;89.91
17362;BME280;8798;51.938;4.348;2022-12-18T05:39:24;102452.53;;;-1.75;90.01
17362;BME280;8798;51.938;4.348;2022-12-18T05:41:53;102453.41;;;-1.76;89.81
17362;BME280;8798;51.938;4.348;2022-12-18T05:44:21;102441.19;;;-1.78;90.01
17362;BME280;8798;51.938;4.348;2022-12-18T05:46:49;102436.84;;;-1.81;89.96
17362;BME280;8798;51.938;4.348;2022-12-18T05:49:17;102422.03;;;-1.85;90.06
17362;BME280;8798;51.938;4.348;2022-12-18T05:51:45;102411.53;;;-1.86;89.77
17362;BME280;8798;51.938;4.348;2022-12-18T05:54:13;102397.59;;;-1.90;89.48
17362;BME280;8798;51.938;4.348;2022-12-18T05:56:40;102392.34;;;-1.93;90.06
17362;BME280;8798;51.938;4.348;2022-12-18T05:59:15;102385.41;;;-1.96;89.71
17362;BME280;8798;51.938;4.348;2022-12-18T06:01:43;102375.78;;;-1.97;89.98
17362;BME280;8798;51.938;4.348;2022-12-18T06:04:11;102377.56;;;-1.99;90.09
17362;BME280;8798;51.938;4.348;2022-12-18T06:06:39;102377.56;;;-1.99;89.71
17362;BME280;8798;51.938;4.348;2022-12-18T06:09:07;102376.72;;;-2.01;90.08
17362;BME280;8798;51.938;4.348;2022-12-18T06:11:36;102382.03;;;-2.02;90.41
17362;BME280;8798;51.938;4.348;2022-12-18T06:14:05;102363.66;;;-2.05;89.78
17362;BME280;8798;51.938;4.348;2022-12-18T06:16:35;102351.41;;;-2.06;90.22
17362;BME280;8798;51.938;4.348;2022-12-18T06:19:04;102363.75;;;-2.08;89.99
17362;BME280;8798;51.938;4.348;2022-12-18T06:21:32;102348.94;;;-2.12;89.72
17362;BME280;8798;51.938;4.348;2022-12-18T06:24:01;102333.19;;;-2.16;89.35
17362;BME280;8798;51.938;4.348;2022-12-18T06:26:29;102335.00;;;-2.18;90.00
17362;BME280;8798;51.938;4.348;2022-12-18T06:28:58;102319.31;;;-2.22;89.64
17362;BME280;8798;51.938;4.348;2022-12-18T06:31:26;102310.59;;;-2.24;90.08
17362;BME280;8798;51.938;4.348;2022-12-18T06:33:56;102308.88;;;-2.27;89.26
17362;BME280;8798;51.938;4.348;2022-12-18T06:36:24;102303.66;;;-2.28;89.93
17362;BME280;8798;51.938;4.348;2022-12-18T06:38:51;102305.41;;;-2.29;89.68
17362;BME280;8798;51.938;4.348;2022-12-18T06:41:20;102309.75;;;-2.28;90.03
17362;BME280;8798;51.938;4.348;2022-12-18T06:43:48;102322.91;;;-2.26;89.71
17362;BME280;8798;51.938;4.348;2022-12-18T06:46:21;102333.34;;;-2.23;89.90
17362;BME280;8798;51.938;4.348;2022-12-18T06:48:49;102350.88;;;-2.22;89.24
17362;BME280;8798;51.938;4.348;2022-12-18T06:51:21;102351.69;;;-2.20;89.76
17362;BME280;8798;51.938;4.348;2022-12-18T06:53:49;102353.44;;;-2.19;89.74
17362;BME280;8798;51.938;4.348;2022-12-18T06:56:17;102373.59;;;-2.18;90.00
17362;BME280;8798;51.938;4.348;2022-12-18T06:58:45;102384.97;;;-2.16;89.24
17362;BME280;8798;51.938;4.348;2022-12-18T07:01:13;102397.19;;;-2.13;89.92
17362;BME280;8798;51.938;4.348;2022-12-18T07:03:42;102405.00;;;-2.10;89.58
17362;BME280;8798;51.938;4.348;2022-12-18T07:06:15;102419.00;;;-2.08;89.59
17362;BME280;8798;51.938;4.348;2022-12-18T07:08:45;102428.59;;;-2.06;89.50
17362;BME280;8798;51.938;4.348;2022-12-18T07:11:13;102441.75;;;-2.04;89.73
17362;BME280;8798;51.938;4.348;2022-12-18T07:13:41;102446.94;;;-2.01;89.61
17362;BME280;8798;51.938;4.348;2022-12-18T07:16:11;102460.09;;;-2.00;89.48
17362;BME280;8798;51.938;4.348;2022-12-18T07:18:48;102465.28;;;-1.98;89.97
17362;BME280;8798;51.938;4.348;2022-12-18T07:21:17;102479.31;;;-1.96;89.66
17362;BME280;8798;51.938;4.348;2022-12-18T07:23:47;102482.78;;;-1.94;89.92
17362;BME280;8798;51.938;4.348;2022-12-18T07:26:17;102487.13;;;-1.93;89.28
17362;BME280;8798;51.938;4.348;2022-12-18T07:28:45;102488.91;;;-1.93;89.62
17362;BME280;8798;51.938;4.348;2022-12-18T07:31:16;102500.28;;;-1.93;89.47
17362;BME280;8798;51.938;4.348;2022-12-18T07:33:45;102503.78;;;-1.91;89.58
17362;BME280;8798;51.938;4.348;2022-12-18T07:36:14;102512.50;;;-1.89;89.54
17362;BME280;8798;51.938;4.348;2022-12-18T07:38:42;102512.50;;;-1.89;89.76
17362;BME280;8798;51.938;4.348;2022-12-18T07:41:12;102512.50;;;-1.89;89.84
17362;BME280;8798;51.938;4.348;2022-12-18T07:43:41;102516.00;;;-1.88;89.87
17362;BME280;8798;51.938;4.348;2022-12-18T07:46:10;102513.38;;;-1.88;89.73
17362;BME280;8798;51.938;4.348;2022-12-18T07:48:40;102514.28;;;-1.89;89.77
17362;BME280;8798;51.938;4.348;2022-12-18T07:51:09;102513.44;;;-1.90;90.00
17362;BME280;8798;51.938;4.348;2022-12-18T07:53:41;102516.91;;;-1.89;89.39
17362;BME280;8798;51.938;4.348;2022-12-18T07:56:11;102519.56;;;-1.89;89.56
17362;BME280;8798;51.938;4.348;2022-12-18T07:58:57;102524.81;;;-1.88;89.49
17362;BME280;8798;51.938;4.348;2022-12-18T08:01:25;102511.63;;;-1.88;89.75
17362;BME280;8798;51.938;4.348;2022-12-18T08:03:53;102512.50;;;-1.89;89.66
17362;BME280;8798;51.938;4.348;2022-12-18T08:06:21;102519.56;;;-1.89;89.19
17362;BME280;8798;51.938;4.348;2022-12-18T08:08:51;102521.31;;;-1.90;89.27
17362;BME280;8798;51.938;4.348;2022-12-18T08:11:20;102505.53;;;-1.91;89.56
17362;BME280;8798;51.938;4.348;2022-12-18T08:13:49;102509.91;;;-1.90;89.48
17362;BME280;8798;51.938;4.348;2022-12-18T08:16:17;102517.78;;;-1.90;89.71
17362;BME280;8798;51.938;4.348;2022-12-18T08:18:46;102518.69;;;-1.90;89.43
17362;BME280;8798;51.938;4.348;2022-12-18T08:21:17;102524.81;;;-1.88;89.34
17362;BME280;8798;51.938;4.348;2022-12-18T08:23:47;102530.00;;;-1.86;89.79
17362;BME280;8798;51.938;4.348;2022-12-18T08:26:17;102533.50;;;-1.86;89.77
17362;BME280;8798;51.938;4.348;2022-12-18T08:28:48;102544.03;;;-1.84;89.64
17362;BME280;8798;51.938;4.348;2022-12-18T08:31:16;102552.72;;;-1.81;89.43
17362;BME280;8798;51.938;4.348;2022-12-18T08:33:45;102560.59;;;-1.79;89.33
17362;BME280;8798;51.938;4.348;2022-12-18T08:36:12;102576.34;;;-1.76;89.66
17362;BME280;8798;51.938;4.348;2022-12-18T08:38:40;102576.34;;;-1.76;89.69
17362;BME280;8798;51.938;4.348;2022-12-18T08:41:10;102580.66;;;-1.74;89.75
17362;BME280;8798;51.938;4.348;2022-12-18T08:43:38;102581.56;;;-1.73;89.18
17362;BME280;8798;51.938;4.348;2022-12-18T08:46:27;102592.97;;;-1.73;89.41
17362;BME280;8798;51.938;4.348;2022-12-18T08:48:55;102602.56;;;-1.70;89.44
17362;BME280;8798;51.938;4.348;2022-12-18T08:51:23;102611.31;;;-1.68;89.75
17362;BME280;8798;51.938;4.348;2022-12-18T08:53:51;102615.66;;;-1.65;89.11
17362;BME280;8798;51.938;4.348;2022-12-18T08:56:19;102626.13;;;-1.62;89.76
17362;BME280;8798;51.938;4.348;2022-12-18T08:58:47;102642.72;;;-1.59;89.31
17362;BME280;8798;51.938;4.348;2022-12-18T09:01:14;102665.50;;;-1.55;89.66
17362;BME280;8798;51.938;4.348;2022-12-18T09:03:44;102667.19;;;-1.52;89.67
17362;BME280;8798;51.938;4.348;2022-12-18T09:06:16;102675.94;;;-1.50;89.23
17362;BME280;8798;51.938;4.348;2022-12-18T09:08:44;102686.50;;;-1.50;89.56
17362;BME280;8798;51.938;4.348;2022-12-18T09:11:14;102691.69;;;-1.47;89.71
17362;BME280;8798;51.938;4.348;2022-12-18T09:13:42;102698.66;;;-1.44;89.67
17362;BME280;8798;51.938;4.348;2022-12-18T09:16:10;102721.41;;;-1.39;89.57
17362;BME280;8798;51.938;4.348;2022-12-18T09:18:38;102739.75;;;-1.34;89.58
17362;BME280;8798;51.938;4.348;2022-12-18T09:21:12;102752.88;;;-1.30;89.27
17362;BME280;8798;51.938;4.348;2022-12-18T09:23:42;102762.47;;;-1.27;89.84
17362;BME280;8798;51.938;4.348;2022-12-18T09:26:10;102788.75;;;-1.21;89.53
17362;BME280;8798;51.938;4.348;2022-12-18T09:28:38;102795.72;;;-1.18;89.47
17362;BME280;8798;51.938;4.348;2022-12-18T09:31:07;102811.47;;;-1.14;89.49
17362;BME280;8798;51.938;4.348;2022-12-18T09:33:35;102835.97;;;-1.09;89.46
17362;BME280;8798;51.938;4.348;2022-12-18T09:36:05;102847.31;;;-1.03;89.44
17362;BME280;8798;51.938;4.348;2022-12-18T09:38:35;102863.91;;;-0.98;89.40
17362;BME280;8798;51.938;4.348;2022-12-18T09:41:06;102891.03;;;-0.92;89.44
17362;BME280;8798;51.938;4.348;2022-12-18T09:43:46;102917.31;;;-0.84;89.29
17362;BME280;8798;51.938;4.348;2022-12-18T09:46:17;102935.66;;;-0.78;89.39
17362;BME280;8798;51.938;4.348;2022-12-18T09:48:49;102960.16;;;-0.71;89.52
17362;BME280;8798;51.938;4.348;2022-12-18T09:51:22;102981.22;;;-0.68;89.50
17362;BME280;8798;51.938;4.348;2022-12-18T09:53:56;102982.00;;;-0.65;89.56
17362;BME280;8798;51.938;4.348;2022-12-18T09:56:28;103000.47;;;-0.61;89.52
17362;BME280;8798;51.938;4.348;2022-12-18T09:58:58;103002.19;;;-0.60;89.37
17362;BME280;8798;51.938;4.348;2022-12-18T10:01:28;102996.00;;;-0.59;89.40
17362;BME280;8798;51.938;4.348;2022-12-18T10:04:09;103005.63;;;-0.55;88.93
17362;BME280;8798;51.938;4.348;2022-12-18T10:06:42;103024.94;;;-0.53;89.42
17362;BME280;8798;51.938;4.348;2022-12-18T10:09:19;103016.13;;;-0.52;89.45
17362;BME280;8798;51.938;4.348;2022-12-18T10:12:01;103026.66;;;-0.49;89.99
17362;BME280;8798;51.938;4.348;2022-12-18T10:14:36;103027.47;;;-0.47;89.58
17362;BME280;8798;51.938;4.348;2022-12-18T10:17:16;103032.72;;;-0.44;89.16
17362;BME280;8798;51.938;4.348;2022-12-18T10:19:51;103056.34;;;-0.38;89.43
17362;BME280;8798;51.938;4.348;2022-12-18T10:22:41;103060.69;;;-0.35;89.36
17362;BME280;8798;51.938;4.348;2022-12-18T10:25:21;103058.91;;;-0.33;89.35
17362;BME280;8798;51.938;4.348;2022-12-18T10:27:52;103072.91;;;-0.30;89.51
17362;BME280;8798;51.938;4.348;2022-12-18T10:30:23;103083.41;;;-0.25;89.45
17362;BME280;8798;51.938;4.348;2022-12-18T10:32:51;103103.59;;;-0.21;89.73
17362;BME280;8798;51.938;4.348;2022-12-18T10:35:25;103116.69;;;-0.15;89.53
17362;BME280;8798;51.938;4.348;2022-12-18T10:38:01;103121.94;;;-0.13;89.13
17362;BME280;8798;51.938;4.348;2022-12-18T10:40:31;103125.41;;;-0.10;89.31
17362;BME280;8798;51.938;4.348;2022-12-18T10:43:11;103131.50;;;-0.06;89.45
17362;BME280;8798;51.938;4.348;2022-12-18T10:45:39;103152.56;;;-0.02;89.24
17362;BME280;8798;51.938;4.348;2022-12-18T10:48:18;103149.00;;;0.01;89.38
17362;BME280;8798;51.938;4.348;2022-12-18T10:50:49;103162.13;;;0.06;89.27
17362;BME280;8798;51.938;4.348;2022-12-18T10:53:40;103187.56;;;0.10;89.34
17362;BME280;8798;51.938;4.348;2022-12-18T10:56:11;103194.56;;;0.15;89.12
17362;BME280;8798;51.938;4.348;2022-12-18T10:58:39;103210.34;;;0.20;89.58
17362;BME280;8798;51.938;4.348;2022-12-18T11:01:10;103224.34;;;0.24;89.71
17362;BME280;8798;51.938;4.348;2022-12-18T11:03:41;103228.69;;;0.28;89.90
17362;BME280;8798;51.938;4.348;2022-12-18T11:06:11;103248.00;;;0.33;89.33
17362;BME280;8798;51.938;4.348;2022-12-18T11:08:40;103239.16;;;0.34;89.88
17362;BME280;8798;51.938;4.348;2022-12-18T11:11:19;103247.91;;;0.37;89.36
17362;BME280;8798;51.938;4.348;2022-12-18T11:13:57;103247.88;;;0.39;89.51
17362;BME280;8798;51.938;4.348;2022-12-18T11:16:26;103255.75;;;0.42;89.70
17362;BME280;8798;51.938;4.348;2022-12-18T11:19:09;103257.50;;;0.45;89.36
17362;BME280;8798;51.938;4.348;2022-12-18T11:21:40;103259.22;;;0.47;89.33
17362;BME280;8798;51.938;4.348;2022-12-18T11:24:18;103266.22;;;0.50;89.25
17362;BME280;8798;51.938;4.348;2022-12-18T11:26:49;103267.03;;;0.53;89.68
17362;BME280;8798;51.938;4.348;2022-12-18T11:29:30;103267.03;;;0.53;90.07
17362;BME280;8798;51.938;4.348;2022-12-18T11:35:15;103266.06;;;0.57;89.54
17362;BME280;8798;51.938;4.348;2022-12-18T11:37:48;103253.72;;;0.58;89.78
17362;BME280;8798;51.938;4.348;2022-12-18T11:40:20;103251.94;;;0.60;89.85
17362;BME280;8798;51.938;4.348;2022-12-18T11:42:54;103241.34;;;0.60;90.14
17362;BME280;8798;51.938;4.348;2022-12-18T11:45:28;103254.53;;;0.61;89.88
17362;BME280;8798;51.938;4.348;2022-12-18T11:48:01;103249.22;;;0.63;89.25
17362;BME280;8798;51.938;4.348;2022-12-18T11:50:33;103248.31;;;0.64;89.90
17362;BME280;8798;51.938;4.348;2022-12-18T11:53:10;103237.72;;;0.64;89.58
17362;BME280;8798;51.938;4.348;2022-12-18T11:55:41;103239.44;;;0.67;89.72
17362;BME280;8798;51.938;4.348;2022-12-18T11:58:20;103228.06;;;0.64;89.83
17362;BME280;8798;51.938;4.348;2022-12-18T12:01:06;103209.56;;;0.63;89.35
17362;BME280;8798;51.938;4.348;2022-12-18T12:04:02;103207.75;;;0.65;89.60
17362;BME280;8798;51.938;4.348;2022-12-18T12:06:43;103204.19;;;0.66;89.50
17362;BME280;8798;51.938;4.348;2022-12-18T12:09:16;103193.63;;;0.66;89.19
17362;BME280;8798;51.938;4.348;2022-12-18T12:11:56;103195.38;;;0.67;89.27
17362;BME280;8798;51.938;4.348;2022-12-18T12:14:37;103195.34;;;0.69;89.38
17362;BME280;8798;51.938;4.348;2022-12-18T12:17:14;103189.97;;;0.72;89.92
17362;BME280;8798;51.938;4.348;2022-12-18T12:19:49;103204.03;;;0.75;89.67
17362;BME280;8798;51.938;4.348;2022-12-18T12:22:26;103200.53;;;0.75;89.80
17362;BME280;8798;51.938;4.348;2022-12-18T12:25:04;103182.88;;;0.75;89.85
17362;BME280;8798;51.938;4.348;2022-12-18T12:27:41;103177.59;;;0.75;89.59
17362;BME280;8798;51.938;4.348;2022-12-18T12:30:18;103173.16;;;0.76;90.04
17362;BME280;8798;51.938;4.348;2022-12-18T12:33:01;103174.00;;;0.79;89.95
17362;BME280;8798;51.938;4.348;2022-12-18T12:35:41;103159.06;;;0.77;88.95
17362;BME280;8798;51.938;4.348;2022-12-18T12:38:14;103156.41;;;0.77;89.02
17362;BME280;8798;51.938;4.348;2022-12-18T12:40:47;103148.47;;;0.77;89.89
17362;BME280;8798;51.938;4.348;2022-12-18T12:43:33;103134.34;;;0.76;89.43
17362;BME280;8798;51.938;4.348;2022-12-18T12:46:06;103121.13;;;0.76;89.79
17362;BME280;8798;51.938;4.348;2022-12-18T12:48:38;103115.84;;;0.76;90.19
17362;BME280;8798;51.938;4.348;2022-12-18T12:51:13;103114.97;;;0.76;89.08
17362;BME280;8798;51.938;4.348;2022-12-18T12:53:44;103100.03;;;0.73;89.99
17362;BME280;8798;51.938;4.348;2022-12-18T12:56:15;103080.69;;;0.71;89.94
17362;BME280;8798;51.938;4.348;2022-12-18T12:58:55;103068.38;;;0.70;89.15
17362;BME280;8798;51.938;4.348;2022-12-18T13:01:35;103064.81;;;0.71;89.32
17362;BME280;8798;51.938;4.348;2022-12-18T13:04:15;103054.25;;;0.71;89.77
17362;BME280;8798;51.938;4.348;2022-12-18T13:06:50;103059.53;;;0.71;89.78
17362;BME280;8798;51.938;4.348;2022-12-18T13:09:22;103056.00;;;0.72;89.10
17362;BME280;8798;51.938;4.348;2022-12-18T13:11:50;103039.25;;;0.72;89.34
17362;BME280;8798;51.938;4.348;2022-12-18T13:14:37;103039.22;;;0.73;89.60
17362;BME280;8798;51.938;4.348;2022-12-18T13:17:27;103029.56;;;0.72;89.03
17362;BME280;8798;51.938;4.348;2022-12-18T13:20:05;103022.50;;;0.73;89.27
17362;BME280;8798;51.938;4.348;2022-12-18T13:22:36;103028.66;;;0.73;89.56
17362;BME280;8798;51.938;4.348;2022-12-18T13:25:29;103022.47;;;0.74;89.91
17362;BME280;8798;51.938;4.348;2022-12-18T13:28:01;103017.13;;;0.76;90.02
17362;BME280;8798;51.938;4.348;2022-12-18T13:30:51;103017.09;;;0.77;89.87